Time;durP1;ratioP1;P1;durP2;ratioP2;P2;SDS_P1;SDS_P2;PMS_P1;PMS_P2;Temp;Humidity;BMP_temperature;BMP_pressure;BME280_temperature;BME280_humidity;BME280_pressure;Samples;Min_cycle;Max_cycle;Signal;HPM_P1;HPM_P2
2023/05/18 00:02:04;;;;;;;11.50;3.57;;;8.70;84.50;;;;;;6170918;23;20875;-76
2023/05/18 00:04:32;;;;;;;5.50;2.77;;;8.60;85.50;;;;;;6142923;23;20382;-77
2023/05/18 00:07:02;;;;;;;8.70;3.73;;;8.60;86.40;;;;;;6168249;23;20386;-75
2023/05/18 00:09:29;;;;;;;10.77;4.40;;;8.50;86.70;;;;;;6166712;23;20395;-76
2023/05/18 00:11:55;;;;;;;7.03;3.80;;;8.50;87.30;;;;;;6166183;23;20371;-76
2023/05/18 00:14:21;;;;;;;14.63;4.33;;;8.50;87.60;;;;;;6166582;23;20375;-73
2023/05/18 00:16:47;;;;;;;10.00;4.13;;;8.40;87.70;;;;;;6167418;23;20375;-74
2023/05/18 00:19:14;;;;;;;10.00;3.87;;;8.40;88.30;;;;;;6167621;23;20390;-74
2023/05/18 00:21:45;;;;;;;10.37;3.90;;;8.30;88.90;;;;;;6169360;23;20429;-75
2023/05/18 00:24:11;;;;;;;7.70;3.27;;;8.30;90.00;;;;;;6177346;23;20421;-76
2023/05/18 00:26:41;;;;;;;8.00;3.13;;;8.30;90.30;;;;;;6168388;23;20650;-77
2023/05/18 00:29:08;;;;;;;8.70;3.90;;;8.20;90.50;;;;;;6118901;23;20421;-75
2023/05/18 00:31:35;;;;;;;9.60;3.53;;;8.20;91.10;;;;;;6169977;23;20795;-75
2023/05/18 00:34:11;;;;;;;9.10;3.57;;;8.10;91.50;;;;;;6168146;23;20379;-76
2023/05/18 00:36:38;;;;;;;11.43;3.70;;;8.10;91.90;;;;;;6169391;23;20418;-75
2023/05/18 00:39:05;;;;;;;9.53;3.30;;;8.10;92.40;;;;;;6167495;23;20366;-74
2023/05/18 00:41:32;;;;;;;9.23;2.80;;;8.00;92.30;;;;;;6143703;23;20410;-74
2023/05/18 00:43:59;;;;;;;7.70;3.27;;;8.00;92.80;;;;;;6166289;23;20641;-76
2023/05/18 00:46:27;;;;;;;5.33;2.37;;;8.00;93.50;;;;;;6167439;23;20363;-74
2023/05/18 00:48:58;;;;;;;6.90;3.00;;;8.00;93.70;;;;;;6181708;23;20432;-77
2023/05/18 00:51:24;;;;;;;7.10;3.00;;;8.00;94.30;;;;;;6176293;23;20416;-77
2023/05/18 00:53:52;;;;;;;7.10;2.80;;;7.90;94.30;;;;;;6174075;23;20794;-75
2023/05/18 00:56:18;;;;;;;6.50;2.90;;;7.80;94.70;;;;;;6197139;23;20437;-75
2023/05/18 00:58:44;;;;;;;5.40;3.40;;;7.80;95.70;;;;;;6171948;23;20389;-75
2023/05/18 01:01:10;;;;;;;10.13;3.10;;;7.70;96.10;;;;;;6199395;23;20441;-77
2023/05/18 01:03:37;;;;;;;9.20;3.17;;;7.70;96.50;;;;;;6173310;23;20621;-75
2023/05/18 01:06:07;;;;;;;4.27;2.50;;;7.60;96.80;;;;;;6176010;23;20199;-75
2023/05/18 01:08:34;;;;;;;6.13;3.10;;;7.60;97.20;;;;;;6170864;23;20378;-74
2023/05/18 01:11:03;;;;;;;10.10;3.40;;;7.50;97.20;;;;;;6172421;23;20386;-74
2023/05/18 01:13:57;;;;;;;5.40;2.67;;;7.50;96.70;;;;;;6198356;23;20362;-74
2023/05/18 01:16:27;;;;;;;5.33;2.40;;;7.50;96.70;;;;;;6168682;23;20393;-75
2023/05/18 01:19:40;;;;;;;7.73;2.57;;;7.50;96.90;;;;;;6149026;23;20421;-76
2023/05/18 01:22:15;;;;;;;5.33;2.47;;;7.50;96.80;;;;;;6201081;23;20412;-76
2023/05/18 01:24:42;;;;;;;6.93;2.77;;;7.50;96.30;;;;;;6148926;23;20389;-77
2023/05/18 01:27:08;;;;;;;8.13;3.13;;;7.50;96.40;;;;;;6146672;23;20385;-76
2023/05/18 01:29:34;;;;;;;6.53;3.00;;;7.50;96.10;;;;;;6174185;23;20417;-75
2023/05/18 01:32:00;;;;;;;5.10;2.53;;;7.60;95.40;;;;;;6171684;23;20374;-75
2023/05/18 01:34:27;;;;;;;8.53;3.20;;;7.60;95.10;;;;;;6171925;23;20378;-75
2023/05/18 01:36:53;;;;;;;7.53;3.00;;;7.60;95.50;;;;;;6173706;23;20377;-75
2023/05/18 01:39:20;;;;;;;6.50;2.70;;;7.60;95.40;;;;;;6172196;23;20194;-74
2023/05/18 01:41:57;;;;;;;9.17;2.63;;;7.50;95.80;;;;;;6200055;23;20401;-75
2023/05/18 01:44:27;;;;;;;9.90;3.40;;;7.50;95.90;;;;;;6172510;23;20143;-74
2023/05/18 01:46:59;;;;;;;8.30;3.00;;;7.50;96.10;;;;;;6172903;23;20410;-73
2023/05/18 01:49:32;;;;;;;8.23;3.27;;;7.40;96.40;;;;;;6166596;23;20736;-74
2023/05/18 01:52:03;;;;;;;6.80;2.90;;;7.40;96.70;;;;;;6165240;23;20399;-74
2023/05/18 01:54:30;;;;;;;4.50;2.10;;;7.40;96.90;;;;;;6159417;23;20377;-73
2023/05/18 01:56:58;;;;;;;5.10;2.27;;;7.40;97.00;;;;;;6165126;23;20387;-75
2023/05/18 01:59:25;;;;;;;5.77;2.20;;;7.30;96.90;;;;;;6174459;23;20419;-74
2023/05/18 02:01:51;;;;;;;6.57;2.37;;;7.30;97.10;;;;;;6160104;23;20866;-74
2023/05/18 02:04:16;;;;;;;14.37;4.77;;;7.20;97.40;;;;;;6132062;23;20784;-73
2023/05/18 02:06:42;;;;;;;6.07;2.90;;;7.20;97.90;;;;;;6158252;23;20377;-73
2023/05/18 02:09:07;;;;;;;11.47;3.43;;;7.10;98.10;;;;;;6159263;23;20583;-75
2023/05/18 02:11:33;;;;;;;6.63;2.50;;;7.20;98.20;;;;;;6158865;23;20147;-73
2023/05/18 02:14:00;;;;;;;5.07;2.33;;;7.20;98.10;;;;;;6157930;23;20371;-74
2023/05/18 02:16:26;;;;;;;4.60;2.50;;;7.20;97.80;;;;;;6158309;23;20370;-73
2023/05/18 02:18:52;;;;;;;6.60;2.60;;;7.20;97.90;;;;;;6158583;23;20202;-74
2023/05/18 02:21:17;;;;;;;6.40;2.80;;;7.20;98.10;;;;;;6157524;23;20568;-73
2023/05/18 02:23:43;;;;;;;5.43;2.43;;;7.10;98.30;;;;;;6164562;23;20366;-74
2023/05/18 02:26:09;;;;;;;7.93;2.37;;;7.00;98.70;;;;;;6169236;23;20140;-74
2023/05/18 02:28:38;;;;;;;7.40;2.57;;;7.00;99.10;;;;;;6167566;23;20143;-74
2023/05/18 02:31:11;;;;;;;14.17;3.63;;;6.90;99.60;;;;;;6167399;23;20457;-77
2023/05/18 02:33:40;;;;;;;8.83;2.80;;;7.00;99.90;;;;;;6168267;23;20382;-74
2023/05/18 02:36:08;;;;;;;8.90;3.37;;;6.90;99.50;;;;;;6164737;23;20469;-74
2023/05/18 02:38:36;;;;;;;5.20;2.33;;;6.90;99.60;;;;;;6162981;23;20371;-74
2023/05/18 02:41:01;;;;;;;4.50;2.77;;;6.90;99.90;;;;;;6157127;23;20411;-73
2023/05/18 02:43:27;;;;;;;10.93;3.00;;;6.80;99.90;;;;;;6157935;23;20625;-73
2023/05/18 02:45:53;;;;;;;8.27;3.30;;;6.80;99.90;;;;;;6157233;23;20367;-73
2023/05/18 02:48:19;;;;;;;7.40;3.10;;;6.80;99.90;;;;;;6156151;23;20462;-73
2023/05/18 02:50:47;;;;;;;7.97;2.23;;;6.70;99.90;;;;;;6157840;23;20173;-74
2023/05/18 02:53:13;;;;;;;3.37;2.20;;;6.70;99.90;;;;;;6157297;23;20152;-73
2023/05/18 02:55:39;;;;;;;6.43;2.77;;;6.80;99.90;;;;;;6161607;23;20389;-74
2023/05/18 02:58:12;;;;;;;11.83;3.10;;;6.70;99.90;;;;;;6165169;23;20157;-74
2023/05/18 03:00:59;;;;;;;9.07;2.93;;;6.70;99.90;;;;;;6159846;23;20545;-73
2023/05/18 03:03:28;;;;;;;7.13;3.03;;;6.70;99.90;;;;;;6156600;23;20465;-74
2023/05/18 03:05:54;;;;;;;3.53;2.27;;;6.60;99.90;;;;;;6157173;23;20394;-74
2023/05/18 03:08:21;;;;;;;9.80;3.00;;;6.60;99.90;;;;;;6157326;23;20459;-74
2023/05/18 03:10:49;;;;;;;7.27;3.20;;;6.60;99.90;;;;;;6156582;23;20492;-73
2023/05/18 03:13:14;;;;;;;10.27;3.43;;;6.70;99.90;;;;;;6157386;23;20765;-73
2023/05/18 03:15:40;;;;;;;8.83;3.37;;;6.70;99.90;;;;;;6156125;23;20377;-73
2023/05/18 03:18:06;;;;;;;7.93;2.77;;;6.70;99.90;;;;;;6158748;23;20170;-73
2023/05/18 03:20:32;;;;;;;7.03;2.73;;;6.70;99.90;;;;;;6155476;23;20422;-73
2023/05/18 03:22:57;;;;;;;5.70;3.10;;;6.60;99.90;;;;;;6157099;23;20142;-72
2023/05/18 03:25:24;;;;;;;5.70;2.30;;;6.60;99.90;;;;;;6156867;23;20152;-72
2023/05/18 03:27:51;;;;;;;5.47;2.13;;;6.50;99.90;;;;;;6156539;23;20131;-74
2023/05/18 03:30:18;;;;;;;2.27;1.60;;;6.50;99.90;;;;;;6162036;23;20409;-73
2023/05/18 03:32:46;;;;;;;5.67;2.87;;;6.50;99.90;;;;;;6166229;23;20371;-73
2023/05/18 03:35:13;;;;;;;15.20;3.20;;;6.50;99.90;;;;;;6164848;23;20454;-77
2023/05/18 03:37:39;;;;;;;8.83;3.10;;;6.50;99.90;;;;;;6158824;23;20669;-72
2023/05/18 03:40:13;;;;;;;4.93;2.40;;;6.50;99.90;;;;;;6157581;23;20405;-73
2023/05/18 03:42:41;;;;;;;6.90;3.03;;;6.50;99.90;;;;;;6156809;23;20385;-73
2023/05/18 03:45:08;;;;;;;8.87;3.37;;;6.50;99.90;;;;;;6156905;23;20465;-74
2023/05/18 03:47:35;;;;;;;7.07;3.20;;;6.50;99.90;;;;;;6156397;23;20434;-73
2023/05/18 03:50:01;;;;;;;7.93;3.03;;;6.50;99.90;;;;;;6155571;23;20806;-73
2023/05/18 03:52:28;;;;;;;11.10;3.10;;;6.50;99.90;;;;;;6156628;23;20383;-74
2023/05/18 03:54:55;;;;;;;8.97;2.77;;;6.60;99.90;;;;;;6159152;23;20488;-73
2023/05/18 03:57:20;;;;;;;8.70;3.07;;;6.60;99.90;;;;;;6156573;23;20383;-73
2023/05/18 03:59:46;;;;;;;5.50;2.57;;;6.60;99.90;;;;;;6157062;23;20437;-72
2023/05/18 04:02:12;;;;;;;7.40;3.40;;;6.60;99.90;;;;;;6164510;23;20159;-73
2023/05/18 04:04:44;;;;;;;3.60;2.60;;;6.60;99.90;;;;;;6163871;23;20401;-72
2023/05/18 04:07:11;;;;;;;6.30;2.70;;;6.60;99.90;;;;;;6164723;23;20580;-73
2023/05/18 04:09:38;;;;;;;7.07;2.80;;;6.70;99.90;;;;;;6149339;23;20386;-75
2023/05/18 04:12:04;;;;;;;7.37;3.10;;;6.70;99.90;;;;;;6170890;23;20362;-73
2023/05/18 04:14:34;;;;;;;7.60;3.30;;;6.70;99.90;;;;;;6165952;23;20417;-73
2023/05/18 04:17:05;;;;;;;4.83;2.40;;;6.80;99.90;;;;;;6171174;23;20378;-73
2023/05/18 04:19:34;;;;;;;5.23;2.80;;;6.80;99.90;;;;;;6163243;23;20402;-73
2023/05/18 04:22:03;;;;;;;7.37;2.60;;;6.80;99.90;;;;;;6166822;23;20406;-73
2023/05/18 04:24:31;;;;;;;5.57;3.03;;;6.90;99.90;;;;;;6163904;23;20390;-73
2023/05/18 04:27:02;;;;;;;8.40;3.57;;;7.00;99.90;;;;;;6140676;23;20378;-74
2023/05/18 04:29:28;;;;;;;5.70;2.80;;;7.00;99.90;;;;;;6164896;23;20412;-74
2023/05/18 04:31:59;;;;;;;3.97;2.53;;;7.10;99.90;;;;;;6166434;23;20398;-73
2023/05/18 04:34:30;;;;;;;8.57;3.40;;;7.20;99.90;;;;;;6167126;23;20367;-73
2023/05/18 04:36:59;;;;;;;8.10;3.00;;;7.30;99.90;;;;;;6165960;23;20425;-75
2023/05/18 04:39:26;;;;;;;10.37;2.37;;;7.40;99.90;;;;;;6166123;23;20391;-73
2023/05/18 04:41:58;;;;;;;3.50;2.17;;;7.50;99.90;;;;;;6164496;23;20851;-73
2023/05/18 04:44:27;;;;;;;3.90;2.10;;;7.50;99.90;;;;;;6163053;23;21133;-73
2023/05/18 04:46:55;;;;;;;6.13;2.23;;;7.50;99.90;;;;;;6163580;23;20358;-75
2023/05/18 04:49:24;;;;;;;4.90;2.17;;;7.50;99.90;;;;;;6164421;23;20762;-73
2023/05/18 04:51:55;;;;;;;4.20;2.13;;;7.60;99.90;;;;;;6164119;23;20517;-74
2023/05/18 04:54:24;;;;;;;6.00;2.40;;;7.70;99.90;;;;;;6163776;23;20411;-73
2023/05/18 04:56:51;;;;;;;2.87;1.90;;;7.80;99.90;;;;;;6163829;23;20394;-73
2023/05/18 04:59:17;;;;;;;4.00;2.30;;;7.90;99.90;;;;;;6163234;23;20418;-73
2023/05/18 05:01:43;;;;;;;7.13;3.07;;;8.40;99.90;;;;;;6162887;23;20537;-73
2023/05/18 05:04:10;;;;;;;10.50;3.60;;;9.00;98.00;;;;;;6162911;23;20863;-72
2023/05/18 05:06:36;;;;;;;6.70;2.70;;;9.50;92.00;;;;;;6165735;23;20427;-73
2023/05/18 05:09:02;;;;;;;10.03;3.77;;;10.00;85.80;;;;;;6165982;23;20364;-73
2023/05/18 05:11:28;;;;;;;8.80;3.77;;;10.50;80.60;;;;;;6165998;23;20147;-74
2023/05/18 05:13:53;;;;;;;6.17;3.40;;;10.80;73.60;;;;;;6165884;23;20652;-73
2023/05/18 05:16:19;;;;;;;8.00;3.27;;;11.10;70.50;;;;;;6165477;23;20159;-73
2023/05/18 05:18:45;;;;;;;8.93;3.13;;;11.40;67.20;;;;;;6163838;23;20143;-74
2023/05/18 05:21:10;;;;;;;9.67;3.13;;;11.70;64.10;;;;;;6165558;23;20210;-74
2023/05/18 05:23:36;;;;;;;9.07;2.83;;;12.10;61.70;;;;;;6164847;23;20592;-75
2023/05/18 05:26:02;;;;;;;4.83;2.23;;;12.30;59.90;;;;;;6162290;23;20140;-74
2023/05/18 05:28:28;;;;;;;9.07;3.70;;;12.60;59.00;;;;;;6139989;23;20211;-73
2023/05/18 05:30:54;;;;;;;7.77;3.07;;;12.70;56.70;;;;;;6165170;23;20418;-73
2023/05/18 05:33:19;;;;;;;8.20;3.10;;;12.70;56.40;;;;;;6167831;23;20136;-73
2023/05/18 05:35:45;;;;;;;5.33;3.00;;;12.80;56.10;;;;;;6166186;23;20135;-78
2023/05/18 05:38:11;;;;;;;6.30;3.00;;;12.80;55.80;;;;;;6165538;23;20597;-74
2023/05/18 05:40:37;;;;;;;9.70;3.17;;;13.10;55.80;;;;;;6173284;23;20414;-74
2023/05/18 05:43:05;;;;;;;6.30;2.50;;;13.30;54.70;;;;;;6167541;23;20513;-73
2023/05/18 05:45:31;;;;;;;5.77;3.37;;;13.50;54.00;;;;;;6166809;23;20367;-77
2023/05/18 05:48:00;;;;;;;8.23;2.77;;;13.50;53.10;;;;;;6169223;23;20398;-74
2023/05/18 05:50:26;;;;;;;5.83;2.63;;;13.70;53.10;;;;;;6171974;23;20410;-74
2023/05/18 05:52:55;;;;;;;5.70;2.67;;;13.90;52.90;;;;;;6172076;23;20155;-74
2023/05/18 05:55:22;;;;;;;8.50;3.30;;;14.30;51.80;;;;;;6198618;23;20358;-74
2023/05/18 05:57:49;;;;;;;5.37;2.73;;;14.30;50.20;;;;;;6169836;23;20517;-74
2023/05/18 06:00:15;;;;;;;8.17;3.10;;;14.30;50.80;;;;;;6170626;23;20425;-73
2023/05/18 06:02:49;;;;;;;9.00;3.77;;;14.30;50.60;;;;;;6105360;23;20231;-74
2023/05/18 06:05:22;;;;;;;4.90;2.47;;;14.30;50.30;;;;;;6079240;23;20412;-74
2023/05/18 06:07:48;;;;;;;6.03;2.60;;;14.60;50.50;;;;;;6082166;23;20380;-73
2023/05/18 06:10:13;;;;;;;7.20;3.17;;;14.90;50.10;;;;;;6077908;23;20397;-74
2023/05/18 06:12:40;;;;;;;4.90;3.03;;;15.00;48.90;;;;;;6103398;23;20284;-73
2023/05/18 06:15:06;;;;;;;8.77;3.27;;;15.00;48.40;;;;;;6080125;23;20377;-74
2023/05/18 06:17:34;;;;;;;4.90;2.73;;;15.10;48.50;;;;;;6080105;23;20161;-74
2023/05/18 06:20:00;;;;;;;7.17;2.70;;;15.20;48.00;;;;;;6106230;23;20389;-75
2023/05/18 06:22:26;;;;;;;5.73;2.83;;;15.20;47.30;;;;;;6081907;23;20372;-73
2023/05/18 06:25:14;;;;;;;9.93;3.10;;;15.10;47.10;;;;;;6085012;23;20177;-76
2023/05/18 06:28:09;;;;;;;9.90;3.57;;;15.10;47.50;;;;;;6088104;23;20822;-74
2023/05/18 06:30:52;;;;;;;4.77;2.93;;;15.10;47.40;;;;;;6078578;23;20406;-74
2023/05/18 06:33:22;;;;;;;4.57;2.40;;;15.20;47.70;;;;;;6107328;23;20473;-75
2023/05/18 06:35:48;;;;;;;4.37;2.30;;;15.30;47.50;;;;;;6145566;23;20391;-75
2023/05/18 06:38:13;;;;;;;5.10;1.90;;;15.30;46.80;;;;;;6167333;23;20380;-74
2023/05/18 06:40:39;;;;;;;7.60;2.03;;;15.30;47.00;;;;;;6169385;23;20177;-76
2023/05/18 06:43:05;;;;;;;8.13;3.13;;;15.40;47.00;;;;;;6194217;23;20146;-75
2023/05/18 06:45:41;;;;;;;5.60;2.33;;;15.20;46.20;;;;;;6168520;23;20559;-75
2023/05/18 06:48:21;;;;;;;4.80;2.27;;;15.20;46.00;;;;;;6169504;23;20428;-75
2023/05/18 06:50:48;;;;;;;4.20;2.63;;;15.40;46.00;;;;;;6176126;23;20426;-75
2023/05/18 06:53:13;;;;;;;7.80;2.50;;;15.40;45.90;;;;;;6177006;23;20379;-74
2023/05/18 06:55:39;;;;;;;7.10;2.40;;;15.40;45.80;;;;;;6174581;23;20212;-76
2023/05/18 06:58:05;;;;;;;4.73;3.03;;;15.20;44.80;;;;;;6175526;23;20187;-74
2023/05/18 07:00:30;;;;;;;6.60;2.73;;;15.20;45.70;;;;;;6172092;23;20220;-78
2023/05/18 07:02:56;;;;;;;5.67;2.10;;;15.00;46.00;;;;;;6168262;23;20155;-75
2023/05/18 07:05:23;;;;;;;5.03;2.63;;;15.10;46.20;;;;;;6166652;23;20455;-74
2023/05/18 07:07:49;;;;;;;4.03;1.80;;;15.10;45.70;;;;;;6168386;23;20377;-75
2023/05/18 07:10:15;;;;;;;11.60;2.73;;;15.20;45.30;;;;;;6165791;23;20399;-75
2023/05/18 07:12:40;;;;;;;9.30;2.80;;;15.10;45.10;;;;;;6165739;23;20170;-75
2023/05/18 07:15:06;;;;;;;5.23;3.00;;;15.00;45.40;;;;;;6167462;23;20198;-75
2023/05/18 07:17:32;;;;;;;4.07;2.30;;;14.80;45.60;;;;;;6166276;23;20160;-74
2023/05/18 07:19:58;;;;;;;7.07;2.43;;;14.70;46.10;;;;;;6164443;23;20390;-74
2023/05/18 07:22:24;;;;;;;5.20;2.37;;;14.50;46.50;;;;;;6169521;23;20143;-75
2023/05/18 07:24:49;;;;;;;4.80;2.50;;;14.20;46.90;;;;;;6170838;23;20512;-75
2023/05/18 07:27:15;;;;;;;9.13;2.80;;;13.90;47.30;;;;;;6172113;23;20214;-75
2023/05/18 07:29:41;;;;;;;7.87;2.10;;;13.60;48.00;;;;;;6165938;23;20181;-75
2023/05/18 07:32:06;;;;;;;5.17;2.83;;;13.40;48.80;;;;;;6141987;23;20148;-77
2023/05/18 07:34:32;;;;;;;6.40;3.30;;;13.10;49.10;;;;;;6165884;23;20158;-77
2023/05/18 07:36:58;;;;;;;8.50;2.70;;;13.10;49.60;;;;;;6162967;23;20154;-75
2023/05/18 07:39:27;;;;;;;8.80;3.50;;;13.00;49.60;;;;;;6166124;23;20163;-75
2023/05/18 07:41:53;;;;;;;4.60;2.33;;;13.00;49.70;;;;;;6166062;23;20169;-75
2023/05/18 07:44:19;;;;;;;5.33;2.80;;;13.00;50.00;;;;;;6143671;23;20394;-76
2023/05/18 07:46:45;;;;;;;8.67;2.40;;;13.10;49.80;;;;;;6142173;23;20430;-75
2023/05/18 07:49:11;;;;;;;5.10;2.87;;;13.00;50.20;;;;;;6187602;23;20432;-74
2023/05/18 07:51:36;;;;;;;12.77;5.80;;;13.00;50.50;;;;;;6174016;23;20382;-74
2023/05/18 07:54:04;;;;;;;5.57;2.63;;;13.00;50.70;;;;;;6171697;23;20162;-75
2023/05/18 07:56:29;;;;;;;5.63;2.53;;;13.10;50.40;;;;;;6172347;23;20135;-75
2023/05/18 07:58:55;;;;;;;9.60;2.80;;;13.10;50.40;;;;;;6170674;23;20476;-76
2023/05/18 08:01:25;;;;;;;9.57;2.70;;;13.10;50.30;;;;;;6169704;23;20162;-74
2023/05/18 08:03:52;;;;;;;8.60;2.23;;;13.10;50.30;;;;;;6173204;23;20230;-76
2023/05/18 08:06:17;;;;;;;6.77;3.00;;;13.10;50.50;;;;;;6174511;23;20354;-76
2023/05/18 08:08:43;;;;;;;9.10;2.47;;;13.10;50.50;;;;;;6172846;23;20370;-76
2023/05/18 08:11:08;;;;;;;7.83;2.17;;;13.20;50.90;;;;;;6197469;23;20159;-76
2023/05/18 08:13:34;;;;;;;8.10;2.90;;;13.20;50.50;;;;;;6171157;23;20151;-75
2023/05/18 08:15:59;;;;;;;7.37;2.83;;;13.20;50.00;;;;;;6173202;23;20508;-76
2023/05/18 08:18:25;;;;;;;13.80;3.60;;;13.30;50.00;;;;;;6173654;23;20165;-75
2023/05/18 08:20:52;;;;;;;7.73;2.77;;;13.40;49.90;;;;;;6200016;23;20178;-74
2023/05/18 08:23:18;;;;;;;8.40;2.57;;;13.40;50.00;;;;;;6201879;23;20194;-75
2023/05/18 08:25:44;;;;;;;7.40;2.80;;;13.50;49.50;;;;;;6197976;23;20362;-76
2023/05/18 08:28:10;;;;;;;6.60;2.70;;;13.50;49.10;;;;;;6197652;23;20388;-75
2023/05/18 08:30:35;;;;;;;6.90;2.27;;;13.50;49.10;;;;;;6173449;23;20264;-77
2023/05/18 08:33:01;;;;;;;6.03;2.53;;;13.60;49.10;;;;;;6170746;23;20598;-78
2023/05/18 08:35:27;;;;;;;4.90;2.03;;;13.70;48.90;;;;;;6170321;23;20138;-77
2023/05/18 08:37:53;;;;;;;4.90;2.20;;;13.80;48.80;;;;;;6194727;23;20691;-76
2023/05/18 08:40:19;;;;;;;9.13;2.53;;;13.80;48.20;;;;;;6169680;23;20436;-76
2023/05/18 08:43:11;;;;;;;6.13;2.50;;;13.80;48.10;;;;;;6169056;23;20831;-76
2023/05/18 08:45:47;;;;;;;6.13;3.30;;;13.70;48.40;;;;;;6171304;23;20764;-75
2023/05/18 08:48:15;;;;;;;4.30;2.20;;;13.80;48.40;;;;;;6146068;23;20413;-76
2023/05/18 08:50:43;;;;;;;9.00;2.73;;;13.80;48.70;;;;;;6170631;23;20394;-77
2023/05/18 08:53:11;;;;;;;4.83;2.50;;;14.00;48.70;;;;;;6172476;23;20350;-75
2023/05/18 08:55:39;;;;;;;6.47;2.30;;;14.10;48.70;;;;;;6171215;23;20362;-74
2023/05/18 08:58:06;;;;;;;4.70;2.00;;;14.30;48.30;;;;;;6170828;23;20389;-75
2023/05/18 09:00:32;;;;;;;5.53;2.17;;;14.40;47.70;;;;;;6198115;23;20726;-76
2023/05/18 09:02:58;;;;;;;4.63;2.50;;;14.60;47.30;;;;;;6171746;23;20374;-76
2023/05/18 09:05:24;;;;;;;8.13;2.43;;;14.70;46.70;;;;;;6170548;23;20421;-74
2023/05/18 09:07:50;;;;;;;8.93;2.80;;;14.70;46.30;;;;;;6168952;23;20410;-74
2023/05/18 09:10:16;;;;;;;5.17;2.47;;;14.60;46.50;;;;;;6171076;23;20177;-74
2023/05/18 09:12:46;;;;;;;4.43;2.23;;;14.70;46.50;;;;;;6155403;23;20373;-75
2023/05/18 09:15:14;;;;;;;4.50;2.23;;;14.80;46.30;;;;;;6172044;23;20835;-78
2023/05/18 09:17:40;;;;;;;3.73;1.80;;;14.80;46.30;;;;;;6173896;23;20879;-77
2023/05/18 09:20:06;;;;;;;3.60;1.70;;;14.80;46.40;;;;;;6173159;23;20398;-76
2023/05/18 09:22:34;;;;;;;9.73;2.57;;;14.90;46.40;;;;;;6175967;23;20139;-76
2023/05/18 09:25:02;;;;;;;6.90;2.83;;;14.90;46.00;;;;;;6174241;23;20441;-74
2023/05/18 09:27:31;;;;;;;4.33;2.20;;;15.00;46.20;;;;;;6175827;23;20370;-77
2023/05/18 09:29:57;;;;;;;9.53;2.90;;;15.10;46.40;;;;;;6200349;23;20414;-75
2023/05/18 09:32:24;;;;;;;7.07;2.67;;;15.20;45.60;;;;;;6181280;23;20371;-77
2023/05/18 09:34:51;;;;;;;6.63;2.40;;;15.40;44.40;;;;;;6154316;23;20366;-76
2023/05/18 09:37:19;;;;;;;6.23;2.27;;;15.40;44.80;;;;;;6110416;23;20471;-75
2023/05/18 09:40:01;;;;;;;6.50;2.30;;;15.50;44.80;;;;;;6114098;23;20407;-79
2023/05/18 09:42:38;;;;;;;4.43;2.00;;;15.60;44.60;;;;;;6111033;23;20394;-78
2023/05/18 09:45:16;;;;;;;6.97;2.30;;;15.80;44.80;;;;;;6113621;23;20416;-75
2023/05/18 09:47:42;;;;;;;5.00;2.97;;;15.90;43.60;;;;;;6109684;23;20392;-80
2023/05/18 09:50:13;;;;;;;5.27;2.80;;;15.90;43.40;;;;;;6109858;23;20400;-75
2023/05/18 09:52:43;;;;;;;5.60;2.27;;;15.80;43.80;;;;;;6087446;23;20488;-76
2023/05/18 09:55:15;;;;;;;8.00;2.33;;;16.00;43.40;;;;;;6108590;23;20360;-79
2023/05/18 09:57:48;;;;;;;6.47;2.20;;;16.20;42.70;;;;;;6108390;23;20399;-78
2023/05/18 10:00:18;;;;;;;7.77;2.60;;;16.20;42.70;;;;;;6084810;23;20531;-78
2023/05/18 10:02:51;;;;;;;6.43;2.43;;;16.30;43.10;;;;;;6107131;23;20392;-75
2023/05/18 10:05:30;;;;;;;5.40;2.20;;;16.40;43.30;;;;;;6108218;23;20381;-77
2023/05/18 10:07:56;;;;;;;6.20;2.50;;;16.60;41.80;;;;;;6112156;23;20439;-76
2023/05/18 10:10:24;;;;;;;7.13;2.73;;;16.60;42.00;;;;;;6148283;23;20402;-75
2023/05/18 10:12:51;;;;;;;5.60;2.10;;;16.70;41.80;;;;;;6175713;23;20370;-77
2023/05/18 10:15:20;;;;;;;5.70;2.43;;;16.80;41.50;;;;;;6199535;23;20361;-77
2023/05/18 10:17:49;;;;;;;6.27;2.60;;;16.80;41.60;;;;;;6173999;23;20397;-77
2023/05/18 10:20:21;;;;;;;5.37;2.97;;;16.60;41.80;;;;;;6178503;23;20388;-79
2023/05/18 10:22:50;;;;;;;5.50;2.70;;;16.50;42.00;;;;;;6151585;23;20387;-76
2023/05/18 10:25:21;;;;;;;7.40;2.80;;;16.40;42.00;;;;;;6172676;23;20387;-76
2023/05/18 10:27:56;;;;;;;3.53;2.43;;;16.20;42.20;;;;;;6171549;23;20373;-77
2023/05/18 10:30:28;;;;;;;5.20;2.93;;;16.00;42.10;;;;;;6179261;23;20520;-76
2023/05/18 10:32:58;;;;;;;6.97;2.67;;;15.90;43.00;;;;;;6181275;23;20358;-80
2023/05/18 10:35:28;;;;;;;9.40;2.43;;;15.90;43.20;;;;;;6178649;23;20374;-79
2023/05/18 10:38:02;;;;;;;6.17;2.37;;;16.00;43.00;;;;;;6203132;23;20358;-78
2023/05/18 10:40:28;;;;;;;6.53;2.80;;;16.00;42.70;;;;;;6175848;23;20468;-76
2023/05/18 10:42:59;;;;;;;7.60;2.30;;;16.10;42.60;;;;;;6175850;23;20463;-79
2023/05/18 10:45:26;;;;;;;8.20;2.20;;;16.00;42.60;;;;;;6178137;23;20384;-77
2023/05/18 10:47:56;;;;;;;4.13;1.90;;;15.90;42.80;;;;;;6176810;23;20366;-78
2023/05/18 10:50:22;;;;;;;5.33;1.63;;;16.00;43.00;;;;;;6175316;23;20444;-76
2023/05/18 10:52:55;;;;;;;6.80;2.27;;;16.30;42.90;;;;;;6151337;23;20438;-77
2023/05/18 10:55:21;;;;;;;4.93;2.10;;;16.50;42.20;;;;;;6174272;23;20377;-76
2023/05/18 10:57:55;;;;;;;7.97;2.40;;;16.70;41.20;;;;;;6179438;23;20404;-77
2023/05/18 11:00:22;;;;;;;7.40;2.17;;;16.60;40.90;;;;;;6151256;23;20564;-78
2023/05/18 11:02:54;;;;;;;6.43;2.50;;;16.40;41.50;;;;;;6175931;23;20717;-78
2023/05/18 11:05:24;;;;;;;6.27;2.20;;;16.40;41.60;;;;;;6174913;23;20370;-79
2023/05/18 11:08:03;;;;;;;5.67;2.37;;;16.60;41.90;;;;;;6150868;23;20405;-76
2023/05/18 11:10:48;;;;;;;8.40;3.03;;;16.70;41.70;;;;;;6175409;23;20433;-77
2023/05/18 11:13:14;;;;;;;4.43;2.33;;;16.60;41.20;;;;;;6173191;23;20408;-77
2023/05/18 11:15:52;;;;;;;4.30;1.93;;;16.30;42.00;;;;;;6199601;23;20360;-78
2023/05/18 11:18:17;;;;;;;6.03;2.43;;;16.30;41.90;;;;;;6173646;23;20374;-77
2023/05/18 11:20:47;;;;;;;5.07;2.40;;;16.20;41.90;;;;;;6148799;23;20480;-78
2023/05/18 11:23:15;;;;;;;5.43;2.50;;;16.40;41.80;;;;;;6173529;23;20150;-78
2023/05/18 11:25:44;;;;;;;6.77;2.30;;;16.50;41.60;;;;;;6174307;23;20374;-76
2023/05/18 11:28:12;;;;;;;9.00;2.37;;;16.50;41.10;;;;;;6173952;23;20389;-76
2023/05/18 11:30:40;;;;;;;3.90;1.80;;;16.70;41.30;;;;;;6153818;23;20408;-78
2023/05/18 11:33:15;;;;;;;3.03;1.80;;;16.70;41.40;;;;;;6200597;23;20362;-77
2023/05/18 11:36:13;;;;;;;7.70;3.50;;;16.70;41.30;;;;;;6176999;23;20378;-77
2023/05/18 11:39:03;;;;;;;8.00;3.33;;;16.70;41.00;;;;;;6175834;23;20385;-77
2023/05/18 11:41:35;;;;;;;5.20;3.13;;;17.00;41.00;;;;;;6148179;23;20417;-77
2023/05/18 11:44:10;;;;;;;6.43;2.37;;;17.10;40.30;;;;;;6174838;23;20393;-76
2023/05/18 11:46:50;;;;;;;8.40;2.60;;;17.10;40.30;;;;;;6176245;23;20389;-77
2023/05/18 11:49:17;;;;;;;7.93;2.80;;;16.90;40.30;;;;;;6200580;23;20459;-80
2023/05/18 11:52:15;;;;;;;7.47;2.80;;;16.80;40.60;;;;;;6204099;23;20363;-78
2023/05/18 11:54:58;;;;;;;5.93;2.27;;;16.70;40.70;;;;;;6178967;23;20386;-76
2023/05/18 11:57:33;;;;;;;5.60;2.97;;;16.80;40.80;;;;;;6126890;23;20390;-78
2023/05/18 12:00:01;;;;;;;6.00;2.50;;;16.90;40.40;;;;;;6176625;23;20628;-78
2023/05/18 12:02:31;;;;;;;8.40;2.53;;;17.00;40.30;;;;;;6151275;23;20497;-77
2023/05/18 12:05:01;;;;;;;6.67;2.60;;;17.00;40.30;;;;;;6152148;23;20388;-77
2023/05/18 12:07:34;;;;;;;9.60;2.97;;;17.00;40.00;;;;;;6174627;23;20413;-77
2023/05/18 12:10:00;;;;;;;6.80;2.30;;;17.00;40.30;;;;;;6173966;23;20401;-74
2023/05/18 12:12:27;;;;;;;4.57;1.60;;;17.00;40.50;;;;;;6175853;23;20404;-73
2023/05/18 12:14:58;;;;;;;4.40;2.13;;;17.10;39.90;;;;;;6149491;23;20386;-76
2023/05/18 12:17:57;;;;;;;5.77;2.23;;;17.20;39.80;;;;;;6201230;23;20378;-77
2023/05/18 12:20:29;;;;;;;5.83;2.20;;;17.30;39.80;;;;;;6176812;23;20415;-73
2023/05/18 12:22:56;;;;;;;11.03;3.37;;;17.40;39.50;;;;;;6152432;23;20378;-77
2023/05/18 12:25:26;;;;;;;10.33;3.30;;;17.50;39.40;;;;;;6177297;23;20464;-75
2023/05/18 12:27:53;;;;;;;4.33;2.27;;;17.60;38.50;;;;;;6203021;23;20814;-76
2023/05/18 12:30:21;;;;;;;6.20;2.70;;;17.60;38.90;;;;;;6202691;23;20438;-77
2023/05/18 12:32:51;;;;;;;6.27;2.60;;;17.70;38.90;;;;;;6202734;23;20393;-75
2023/05/18 12:35:24;;;;;;;5.40;2.60;;;17.80;38.70;;;;;;6200494;23;20639;-78
2023/05/18 12:37:51;;;;;;;12.53;2.73;;;18.00;38.80;;;;;;6176081;23;20450;-75
2023/05/18 12:40:18;;;;;;;7.67;2.43;;;17.80;38.80;;;;;;6154349;23;20401;-77
2023/05/18 12:42:56;;;;;;;6.63;2.63;;;17.90;39.20;;;;;;6204183;23;20370;-75
2023/05/18 12:45:27;;;;;;;5.20;2.07;;;18.00;39.00;;;;;;6201951;23;20362;-76
2023/05/18 12:47:53;;;;;;;8.97;2.60;;;18.00;38.60;;;;;;6173344;23;20384;-75
2023/05/18 12:50:21;;;;;;;7.30;2.80;;;17.90;38.30;;;;;;6198825;23;20386;-74
2023/05/18 12:52:47;;;;;;;7.73;2.40;;;17.80;38.70;;;;;;6174971;23;20378;-76
2023/05/18 12:55:30;;;;;;;5.97;2.27;;;17.70;39.00;;;;;;6172041;23;20373;-77
2023/05/18 12:58:04;;;;;;;8.40;2.50;;;17.70;39.00;;;;;;6199455;23;20385;-77
2023/05/18 13:00:34;;;;;;;8.03;2.50;;;17.70;38.80;;;;;;6150536;23;20425;-76